Scroll down
FLIGHT INFORMATION
SAS Scandinavian Airlines

SAS4431

At Arrival Gate

ENTC
 ENGM
DATE: 2019-11-14
GATE: 23
GATE DEPARTURE: 20:34
TAKEOFF: 20:47
DATE: 2019-11-14
GATE:  -
LANDING: 22:45
GATE ARRIVAL: 23:03
FLIGHT DATA
Crew: KYLE RODGERS
Speed: 440 kts Altitude: 34000 ft
Stage Length: 602 nm
Route: 
Block Time: 2.5 Flight Time: 2
Fuel Used: 12569 LB
TRACK DATA
50000 FT1000 KT
AIRCRAFT INFORMATION
Aircraft Type: B738
Registration: LN-RCN
SELCAL:  MSN/LN: 28318 / 529
Operator: SAS SCANDINAVIAN AIRLINES
Flights: 11 Block Time: 17.7 Flight Time: 14.5
Fuel Used: 93415 LB
  • DEPARTURE INFORMATION
    Date: 2019-11-14
    Airport: ENTC
    Gate: 23
    Gate Departure: 20:34
    Takeoff: 20:47
    ARRIVAL INFORMATION
    Date: 2019-11-14
    Airport: ENGM
    Gate:  -
    Landing: 22:45
    Gate Arrival: 23:03
  • FLIGHT DATA
    Crew: KYLE RODGERS
    Speed: 440 kts Altitude: 34000 ft
    Stage Length: 325 nm
    Route: 
    Block Time: 2.5 Flight Time: 2
    Fuel Used: 12569 LB
  • AIRCRAFT INFORMATION
    Aircraft Type: B738
    Registration: LN-RCN
    SELCAL:  MSN/LN: 28318 / 529
    Operator: SAS Scandinavian Airlines
    Flights: 11 Block Time: 17.7 Flight Time: 14.5
    Fuel Used: 93415 LB

DATALINK LOG | Newest first | Current as of: 2020-09-28 17:22:59
LABEL SEQUENCE CONTENT Dn/Up
QD045923:03 10.9▼ Dn
QC464522:45▼ Dn
2U0249ENGM 142150Z 34002KT 5000 -RA BR BKN003 01/00 Q1016 TEMPO 4000 BR▲ Up
2S0104ENGM▼ Dn
QB471720:47▼ Dn
QA354620:34 23.5▼ Dn
2U2616ENTC 142020Z 25007KT 9999 BKN041 M01/M03 Q1009 NOSIG RMK WIND 2600FT 23005KT▲ Up
2S2634ENTC▼ Dn
A32322CLEARED TO ENGM VIA AMIM3A AMIMO Z156 GUBAV Z101 SOMUB Z134 ABUNO L996 INREX INRE4L. SQUAWK 1537.▲ Up
B32204ENTC ENGM SAS4431 LN-RCN B ▼ Dn
Q02111[LINK ACK]▲ Up
Q02024[LINK TEST]▼ Dn


AIRCRAFT HISTORY
FLIGHT DATE FLIGHT NO. ORIGIN DESTINATION ROUTE BLOCK TIME FLIGHT TIME FUEL USED (LB) PILOT
2020-09-24SAS35ESNU ESSA ESNU DEDIT SIPRI HMR ESSA1.20.95875BigSwede
2020-08-07SAS25ESNQ ESNU ESNQ TERPA KETEL ESNU10.86146BigSwede
2020-07-30SAS1044ESSA ESNQ ESSA SA551 SA564 SA709 SA710 SA855 LUMAX RESNA OSK RASEN REKMI OSKIR ITVAV VAGAS NQ704 NQ703 RW031.81.49293BigSwede
2020-06-27SAS414EKCH ESSA EKCH KEMAX NEXIL ROXEN DEKIK VEPIP BEDOS NEFYN MIKNA PELUP NILUG ESSA1.316605BigSwede
2020-02-20SAS1407ESSA EKCH 1.517235BigSwede
2020-01-24SAS1045ESNQ ESSA 1.81.47391BigSwede
2019-12-07SAS1207ENGM ESNQ 1.71.59123Douglas Morlan
2019-11-14SAS4431ENTC ENGM 2.5212569Kyle Rodgers
2019-11-14SAS4425ENSB ENTC 1.71.49089Kyle Rodgers
2019-11-14SAS4414ENTC ENSB 1.71.59499Kyle Rodgers
2019-11-14SAS4406ENGM ENTC 21.610589Kyle Rodgers